Harristown, IL (62537)

1:31 AM CDT on August 28, 2015 (GMT -0500)
South Shores | | Change Station
CLOSE
Current Station
Personal Weather Station
Location: Decatur, IL
Elevation: 699 ft
Nearby Weather Stations

Elev 699 ft 39.81 °N, 88.95 °W | Updated 12 seconds ago

Clear
Clear
60.8 °F
Feels Like 60.8 °F
N
0.0
Wind Variable Wind from ENE
Gusts 0.0 mph

Today
High -- | Low -- °F
--% Chance of Precip.
Yesterday
High -- | Low -- °F
Precip. -- in
6:20 AM 7:34 PM
Waxing Gibbous, 97% visible
Pressure 30.11 in
Visibility 10.0 miles
Clouds Clear
Dew Point 60 °F
Humidity 98%
Rainfall 0.00 in
Snow Depth Not available.
UV 0.0 out of 12
Pollen 9.80 out of 12
Air Quality Not available.
Flu Activity Not available.
METAR KDEC 280554Z AUTO 11003KT 10SM CLR 15/13 A3012 RMK AO2 SLP195 T01500128 10233 20150 402610100 50004
Pressure 30.11 in
Visibility 10.0 miles
Clouds Clear
Dew Point 60 °F
Humidity 98%
Rainfall 0.00 in
Snow Depth Not available.
UV 0.0 out of 12
Pollen 9.80 out of 12
Air Quality Not available.
Flu Activity Not available.
METAR KDEC 280554Z AUTO 11003KT 10SM CLR 15/13 A3012 RMK AO2 SLP195 T01500128 10233 20150 402610100 50004

10-Day Weather Forecast

×

Almanac

Astronomy

Aug. 28, 2015 Rise Set
Actual Time
Civil Twilight
Nautical Twilight
Astronomical Twilight
Moon
Length of Visible Light
Length of Day
Tomorrow will be .
, % of the Moon is Illuminated

Today's Extremes

State Highs State Lows

Community

WunderPhotos

Upload Photos

1,850,341 photos uploaded!

WunderBlogs® & News

Nearby

Air Quality

  Air Quality AQ Index Pollutant
Not available.

Snow Depth

Station Depth Elevation

Earthquake Activity

City Distance Mag. Time & Date
Minimum magnitude displayed is 2.5.

Coastal Water Temperatures

Place Temperature

Stations

Nearby Weather Stations

Station Location Temp. Windchill Dew Point Humidity Wind Precip. Elev Updated Type